Time;durP1;ratioP1;P1;durP2;ratioP2;P2;SDS_P1;SDS_P2;PMS_P1;PMS_P2;Temp;Humidity;BMP_temperature;BMP_pressure;BME280_temperature;BME280_humidity;BME280_pressure;Samples;Min_cycle;Max_cycle;Signal;HPM_P1;HPM_P2
2024/01/25 00:02:57;;;;;;;16.92;9.25;;;;;;;1.30;100.00;100139.69;6271277;28;20061;-73
2024/01/25 00:05:58;;;;;;;19.35;9.55;;;;;;;1.28;100.00;100133.72;6271057;28;20056;-73
2024/01/25 00:09:00;;;;;;;14.85;9.70;;;;;;;1.30;100.00;100143.09;6271484;28;20395;-73
2024/01/25 00:12:01;;;;;;;14.48;9.00;;;;;;;1.30;100.00;100139.69;6272189;28;20060;-73
2024/01/25 00:15:02;;;;;;;23.83;10.85;;;;;;;1.31;100.00;100139.63;6270990;28;20045;-73
2024/01/25 00:18:03;;;;;;;17.27;10.20;;;;;;;1.25;100.00;100129.47;6272037;28;20049;-73
2024/01/25 00:21:04;;;;;;;22.98;10.25;;;;;;;1.30;100.00;100131.97;6271141;28;20060;-73
2024/01/25 00:24:05;;;;;;;17.02;8.95;;;;;;;1.30;100.00;100121.69;6270742;28;20506;-73
2024/01/25 00:27:06;;;;;;;20.48;10.23;;;;;;;1.38;100.00;100114.63;6270928;28;20053;-73
2024/01/25 00:30:07;;;;;;;18.13;8.20;;;;;;;1.31;100.00;100115.66;6270571;28;20057;-73
2024/01/25 00:33:08;;;;;;;10.73;6.88;;;;;;;1.45;100.00;100121.34;6271033;28;20088;-73
2024/01/25 00:36:10;;;;;;;11.27;6.70;;;;;;;1.57;100.00;100115.91;6270540;28;20102;-73
2024/01/25 00:39:11;;;;;;;12.65;6.43;;;;;;;1.54;100.00;100107.41;6270797;28;20053;-73
2024/01/25 00:42:14;;;;;;;10.77;6.40;;;;;;;1.53;100.00;100101.44;6270781;28;20144;-73
2024/01/25 00:45:15;;;;;;;11.85;5.93;;;;;;;1.48;100.00;100100.69;6272348;28;20052;-73
2024/01/25 00:48:16;;;;;;;7.10;4.45;;;;;;;1.53;100.00;100092.88;6277013;28;20056;-73
2024/01/25 00:51:22;;;;;;;13.60;5.55;;;;;;;1.64;100.00;100088.31;6275499;28;20045;-73
2024/01/25 00:54:23;;;;;;;4.63;3.17;;;;;;;1.69;100.00;100095.91;6275867;28;20053;-73
2024/01/25 00:57:24;;;;;;;7.28;4.35;;;;;;;1.79;100.00;100093.09;6275488;28;20136;-68
2024/01/25 01:00:25;;;;;;;8.73;4.75;;;;;;;1.93;100.00;100091.91;6276904;28;20049;-69
2024/01/25 01:03:26;;;;;;;15.93;4.90;;;;;;;1.94;100.00;100094.44;6266429;28;20056;-69
2024/01/25 01:06:27;;;;;;;8.05;4.47;;;;;;;1.94;100.00;100091.03;6275536;28;20147;-69
2024/01/25 01:09:28;;;;;;;12.45;4.40;;;;;;;1.97;100.00;100089.22;6274850;28;20143;-69
2024/01/25 01:12:30;;;;;;;8.07;4.18;;;;;;;1.90;100.00;100086.84;6276692;28;20059;-68
2024/01/25 01:15:30;;;;;;;7.87;4.47;;;;;;;2.06;100.00;100095.00;6275345;28;20093;-69
2024/01/25 01:18:31;;;;;;;6.35;4.07;;;;;;;2.05;100.00;100091.59;6274924;28;20106;-69
2024/01/25 01:21:34;;;;;;;11.18;4.88;;;;;;;2.07;100.00;100087.25;6276115;28;20045;-69
2024/01/25 01:24:35;;;;;;;;;;;;;;;2.13;100.00;100083.69;6276263;28;20111;-69
2024/01/25 01:27:35;;;;;;;7.43;3.80;;;;;;;2.09;100.00;100082.09;6275735;28;20379;-69
2024/01/25 01:30:36;;;;;;;5.47;3.50;;;;;;;2.05;100.00;100077.91;6275797;28;20133;-70
2024/01/25 01:33:37;;;;;;;10.07;5.50;;;;;;;2.14;100.00;100081.09;6274228;28;20060;-70
2024/01/25 01:36:38;;;;;;;17.17;5.45;;;;;;;2.18;100.00;100066.38;6274542;28;20060;-69
2024/01/25 01:39:41;;;;;;;9.88;4.82;;;;;;;2.04;100.00;100074.47;6274790;28;20098;-70
2024/01/25 01:42:44;;;;;;;10.02;4.35;;;;;;;2.14;100.00;100070.78;6274455;28;20498;-69
2024/01/25 01:45:48;;;;;;;6.38;4.13;;;;;;;2.13;100.00;100070.81;6275916;28;20099;-69
2024/01/25 01:48:48;;;;;;;9.98;4.40;;;;;;;2.18;100.00;100084.41;6275715;28;20057;-70
2024/01/25 01:51:49;;;;;;;7.43;4.47;;;;;;;2.23;100.00;100082.56;6275212;28;20064;-70
2024/01/25 01:54:50;;;;;;;7.95;3.83;;;;;;;2.21;100.00;100090.31;6274453;28;20183;-69
2024/01/25 01:57:52;;;;;;;6.78;3.50;;;;;;;2.34;100.00;100083.13;6272775;28;20056;-69
2024/01/25 02:00:53;;;;;;;10.40;4.32;;;;;;;2.30;100.00;100073.78;6273980;28;20132;-69
2024/01/25 02:03:55;;;;;;;7.97;4.20;;;;;;;2.39;100.00;100067.56;6273405;28;20057;-69
2024/01/25 02:06:58;;;;;;;8.23;3.60;;;;;;;2.38;100.00;100069.28;6275300;28;20508;-70
2024/01/25 02:09:59;;;;;;;11.23;4.50;;;;;;;2.40;100.00;100064.91;6274790;28;20049;-69
2024/01/25 02:13:00;;;;;;;9.88;4.05;;;;;;;2.43;100.00;100071.75;6275280;28;20407;-70
2024/01/25 02:16:00;;;;;;;10.30;4.75;;;;;;;2.48;100.00;100063.88;6273694;28;20049;-70
2024/01/25 02:19:03;;;;;;;5.28;3.03;;;;;;;2.48;100.00;100061.31;6273555;28;20048;-70
2024/01/25 02:22:05;;;;;;;5.50;3.70;;;;;;;2.53;100.00;100055.16;6273688;28;20064;-69
2024/01/25 02:25:06;;;;;;;3.30;2.60;;;;;;;2.59;100.00;100067.88;6273614;28;20428;-69
2024/01/25 02:28:07;;;;;;;6.93;3.92;;;;;;;2.56;100.00;100061.94;6274962;28;20041;-70
2024/01/25 02:31:08;;;;;;;13.52;3.80;;;;;;;2.69;100.00;100055.53;6273314;28;20114;-69
2024/01/25 02:34:08;;;;;;;12.10;3.33;;;;;;;2.65;100.00;100053.94;6274726;28;20052;-70
2024/01/25 02:37:11;;;;;;;5.97;2.72;;;;;;;2.60;100.00;100054.06;6273054;28;20048;-70
2024/01/25 02:40:12;;;;;;;9.77;3.78;;;;;;;2.69;100.00;100058.13;6274229;28;20400;-70
2024/01/25 02:43:13;;;;;;;10.40;3.33;;;;;;;2.76;100.00;100059.66;6273116;28;20084;-70
2024/01/25 02:46:14;;;;;;;9.02;3.67;;;;;;;2.74;100.00;100061.44;6274448;28;20049;-70
2024/01/25 02:49:14;;;;;;;8.98;3.88;;;;;;;2.82;100.00;100064.63;6274228;28;20053;-70
2024/01/25 02:52:15;;;;;;;13.63;3.50;;;;;;;2.92;100.00;100064.34;6272826;28;20106;-70
2024/01/25 02:55:19;;;;;;;4.88;2.85;;;;;;;2.84;100.00;100054.25;6272905;28;20049;-73
2024/01/25 02:58:20;;;;;;;9.75;3.80;;;;;;;2.85;100.00;100057.69;6273839;28;20048;-74
2024/01/25 03:01:21;;;;;;;9.02;3.00;;;;;;;2.83;100.00;100052.56;6274019;28;20053;-74
2024/01/25 03:04:24;;;;;;;9.10;3.20;;;;;;;2.86;100.00;100049.91;6272621;28;20061;-74
2024/01/25 03:07:25;;;;;;;7.70;2.58;;;;;;;2.82;100.00;100051.75;6273636;28;20102;-74
2024/01/25 03:10:29;;;;;;;10.05;3.38;;;;;;;2.81;100.00;100047.47;6271920;28;20053;-74
2024/01/25 03:13:31;;;;;;;6.75;2.33;;;;;;;2.90;100.00;100048.06;6273864;28;20064;-74
2024/01/25 03:16:32;;;;;;;4.30;1.90;;;;;;;2.83;100.00;100042.25;6272085;28;20076;-74
2024/01/25 03:19:33;;;;;;;10.80;2.17;;;;;;;3.05;100.00;100044.19;6272580;28;20572;-75
2024/01/25 03:22:34;;;;;;;6.43;2.70;;;;;;;3.13;100.00;100055.97;6273401;28;20056;-75
2024/01/25 03:25:37;;;;;;;4.75;1.88;;;;;;;3.07;100.00;100048.44;6272088;28;20179;-74
2024/01/25 03:28:40;;;;;;;3.75;1.75;;;;;;;3.19;100.00;100048.06;6273225;28;20082;-74
2024/01/25 03:31:41;;;;;;;4.13;1.88;;;;;;;3.23;100.00;100048.78;6271691;28;20053;-74
2024/01/25 03:34:42;;;;;;;7.82;2.55;;;;;;;3.24;100.00;100050.50;6271987;28;20052;-75
2024/01/25 03:37:43;;;;;;;14.65;5.45;;;;;;;3.13;100.00;100050.81;6272750;28;20376;-75
2024/01/25 03:40:44;;;;;;;10.98;5.20;;;;;;;3.20;100.00;100046.31;6271649;28;20048;-75
2024/01/25 03:43:45;;;;;;;8.38;2.25;;;;;;;2.99;100.00;100040.91;6271939;28;20063;-75
2024/01/25 03:46:46;;;;;;;8.05;2.92;;;;;;;2.96;100.00;100045.31;6271633;28;20135;-74
2024/01/25 03:49:47;;;;;;;8.32;2.50;;;;;;;2.96;100.00;100045.31;6271322;28;20571;-74
2024/01/25 03:52:48;;;;;;;7.15;2.17;;;;;;;2.94;100.00;100047.09;6271243;28;20499;-75
2024/01/25 03:55:49;;;;;;;5.05;2.22;;;;;;;2.86;100.00;100041.31;6272576;28;20045;-74
2024/01/25 03:58:50;;;;;;;2.00;1.50;;;;;;;2.93;100.00;100037.69;6272547;28;20053;-75
2024/01/25 04:01:51;;;;;;;6.05;1.80;;;;;;;2.83;100.00;100035.38;6271664;28;20060;-74
2024/01/25 04:04:52;;;;;;;12.15;2.38;;;;;;;2.97;100.00;100041.88;6272354;28;20103;-74
2024/01/25 04:07:53;;;;;;;8.20;2.00;;;;;;;3.00;100.00;100034.03;6272350;28;20053;-74
2024/01/25 04:10:54;;;;;;;10.13;2.28;;;;;;;3.03;100.00;100033.94;6272307;28;20084;-74
2024/01/25 04:13:55;;;;;;;7.70;1.95;;;;;;;3.08;100.00;100026.06;6271239;28;20140;-74
2024/01/25 04:16:56;;;;;;;8.52;2.10;;;;;;;3.06;100.00;100027.84;6271146;28;20099;-74
2024/01/25 04:19:57;;;;;;;8.63;2.20;;;;;;;3.06;100.00;100014.97;6271415;28;20049;-74
2024/01/25 04:22:58;;;;;;;8.50;1.85;;;;;;;3.05;100.00;100032.16;6272053;28;20049;-75
2024/01/25 04:25:59;;;;;;;3.78;1.50;;;;;;;3.07;100.00;100030.38;6270973;28;20047;-74
2024/01/25 04:29:00;;;;;;;10.23;2.55;;;;;;;2.97;100.00;100014.34;6270898;28;20045;-74
2024/01/25 04:32:01;;;;;;;5.63;2.15;;;;;;;3.14;100.00;100021.56;6271612;28;20076;-71
2024/01/25 04:35:02;;;;;;;11.27;1.77;;;;;;;3.13;100.00;100024.19;6271259;28;20195;-70
2024/01/25 04:38:03;;;;;;;7.25;2.50;;;;;;;3.21;100.00;100027.38;6270580;28;20483;-71
2024/01/25 04:41:05;;;;;;;10.10;1.48;;;;;;;3.20;100.00;100029.09;6270554;28;20057;-74
2024/01/25 04:44:06;;;;;;;4.93;1.75;;;;;;;3.10;100.00;100027.69;6270667;28;20049;-74
2024/01/25 04:47:06;;;;;;;5.95;1.92;;;;;;;3.19;100.00;100035.16;6271389;28;20071;-74
2024/01/25 04:50:07;;;;;;;3.33;1.33;;;;;;;3.17;100.00;100029.22;6271611;28;20582;-75
2024/01/25 04:53:09;;;;;;;12.23;1.70;;;;;;;3.27;100.00;100028.91;6271559;28;20087;-75
2024/01/25 04:56:10;;;;;;;11.10;2.70;;;;;;;3.25;100.00;100034.13;6246429;28;20084;-75
2024/01/25 04:59:11;;;;;;;9.10;2.13;;;;;;;3.26;100.00;100034.97;6262298;28;20115;-75
2024/01/25 05:02:12;;;;;;;3.78;1.63;;;;;;;3.24;100.00;100032.44;6250263;28;20058;-75
2024/01/25 05:05:15;;;;;;;10.55;1.80;;;;;;;3.38;100.00;100035.44;6245771;28;20110;-75
2024/01/25 05:08:16;;;;;;;21.90;2.88;;;;;;;3.38;100.00;100040.59;6246505;28;20227;-75
2024/01/25 05:11:17;;;;;;;12.48;2.13;;;;;;;3.42;100.00;100039.59;6257475;28;20098;-75
2024/01/25 05:14:18;;;;;;;3.53;0.77;;;;;;;3.39;100.00;100037.09;6270828;28;20048;-73
2024/01/25 05:17:19;;;;;;;8.30;1.83;;;;;;;3.37;100.00;100041.47;6261018;28;20407;-74
2024/01/25 05:20:20;;;;;;;3.20;1.08;;;;;;;3.34;100.00;100033.00;6264834;28;20114;-74
2024/01/25 05:23:21;;;;;;;8.43;1.75;;;;;;;3.30;100.00;100034.81;6270413;28;20481;-74
2024/01/25 05:26:22;;;;;;;2.58;1.58;;;;;;;3.31;100.00;100039.09;6269513;28;20488;-75
2024/01/25 05:29:23;;;;;;;6.13;1.98;;;;;;;3.26;100.00;100042.72;6269106;28;20052;-74
2024/01/25 05:32:24;;;;;;;2.92;1.98;;;;;;;3.23;100.00;100029.03;6272590;28;20052;-75
2024/01/25 05:35:24;;;;;;;4.72;1.35;;;;;;;3.23;100.00;100041.91;6273988;28;20053;-75
2024/01/25 05:38:26;;;;;;;10.43;1.90;;;;;;;3.15;100.00;100043.88;6273556;28;20041;-75
2024/01/25 05:41:26;;;;;;;2.50;1.08;;;;;;;3.16;100.00;100044.72;6273553;28;20052;-75
2024/01/25 05:44:27;;;;;;;9.43;1.85;;;;;;;3.10;100.00;100035.44;6265694;28;20078;-74
2024/01/25 05:47:28;;;;;;;6.50;1.48;;;;;;;3.01;100.00;100040.88;6274551;28;20055;-75
2024/01/25 05:50:29;;;;;;;2.85;1.48;;;;;;;3.19;100.00;100040.31;6273737;28;20079;-75
2024/01/25 05:53:30;;;;;;;11.68;2.60;;;;;;;3.18;100.00;100033.47;6273777;28;20056;-75
2024/01/25 05:56:31;;;;;;;7.50;1.92;;;;;;;3.07;100.00;100039.84;6281529;28;20467;-75
2024/01/25 05:59:32;;;;;;;9.75;3.05;;;;;;;2.99;100.00;100034.94;6296901;28;20487;-75
2024/01/25 06:02:33;;;;;;;11.85;2.28;;;;;;;2.98;100.00;100034.06;6297297;28;20055;-75
2024/01/25 06:05:34;;;;;;;4.95;1.42;;;;;;;2.94;100.00;100047.94;6297319;28;20056;-75
2024/01/25 06:08:35;;;;;;;9.40;2.13;;;;;;;2.93;100.00;100045.44;6298421;28;20055;-75
2024/01/25 06:11:37;;;;;;;11.27;1.77;;;;;;;3.01;100.00;100051.19;6298531;28;20048;-74
2024/01/25 06:14:38;;;;;;;14.05;2.00;;;;;;;2.94;100.00;100047.09;6297353;28;20071;-75
2024/01/25 06:17:38;;;;;;;6.88;1.90;;;;;;;3.00;100.00;100052.06;6297502;28;20483;-74
2024/01/25 06:20:39;;;;;;;9.63;1.85;;;;;;;2.97;100.00;100049.59;6297200;28;20048;-75
2024/01/25 06:23:41;;;;;;;7.03;1.83;;;;;;;3.02;100.00;100053.72;6297547;28;20392;-74
2024/01/25 06:26:41;;;;;;;7.53;1.52;;;;;;;3.02;100.00;100053.72;6298331;28;20048;-75
2024/01/25 06:29:42;;;;;;;5.53;1.60;;;;;;;3.11;100.00;100052.59;6297499;28;20059;-74
2024/01/25 06:32:43;;;;;;;7.60;2.42;;;;;;;3.15;100.00;100043.88;6298142;28;20056;-74
2024/01/25 06:35:44;;;;;;;0.98;0.82;;;;;;;3.02;100.00;100050.28;6298392;28;20557;-75
2024/01/25 06:38:45;;;;;;;9.98;2.30;;;;;;;3.15;100.00;100041.31;6297973;28;20044;-75
2024/01/25 06:41:46;;;;;;;8.05;2.25;;;;;;;3.17;100.00;100054.13;6297132;28;20143;-76
2024/01/25 06:44:47;;;;;;;15.38;2.90;;;;;;;3.17;100.00;100048.97;6297133;28;20403;-75
2024/01/25 06:47:48;;;;;;;5.50;1.25;;;;;;;3.08;100.00;100052.69;6296683;28;20245;-75
2024/01/25 06:50:50;;;;;;;10.35;1.65;;;;;;;3.38;100.00;100052.66;6298293;28;20055;-75
2024/01/25 06:53:51;;;;;;;4.35;2.22;;;;;;;3.38;100.00;100056.06;6296454;28;20135;-75
2024/01/25 06:56:52;;;;;;;10.55;1.83;;;;;;;3.34;100.00;100049.31;6296405;28;20067;-75
2024/01/25 06:59:52;;;;;;;5.95;1.92;;;;;;;3.37;100.00;100050.94;6280423;28;20049;-75
2024/01/25 07:02:53;;;;;;;11.10;1.63;;;;;;;3.50;100.00;100049.69;6272954;28;20078;-75
2024/01/25 07:05:54;;;;;;;10.10;2.35;;;;;;;3.62;100.00;100057.03;6272853;28;20048;-75
2024/01/25 07:08:55;;;;;;;11.23;2.08;;;;;;;3.67;100.00;100050.88;6271219;28;20067;-75
2024/01/25 07:11:58;;;;;;;8.60;1.88;;;;;;;3.82;100.00;100055.53;6271535;28;20408;-75
2024/01/25 07:14:59;;;;;;;6.28;2.30;;;;;;;3.89;100.00;100051.00;6272470;28;20098;-75
2024/01/25 07:18:00;;;;;;;6.90;2.35;;;;;;;3.90;100.00;100058.69;6272919;28;20049;-74
2024/01/25 07:21:02;;;;;;;18.90;4.07;;;;;;;3.89;100.00;100061.31;6271176;28;20072;-75
2024/01/25 07:24:06;;;;;;;6.75;3.05;;;;;;;3.83;100.00;100062.38;6272057;28;20577;-75
2024/01/25 07:27:07;;;;;;;7.43;2.30;;;;;;;3.84;100.00;100058.91;6272121;28;20048;-75
2024/01/25 07:30:09;;;;;;;6.88;1.98;;;;;;;3.72;100.00;100065.28;6272609;28;20049;-75
2024/01/25 07:33:09;;;;;;;6.43;2.20;;;;;;;3.75;100.00;100065.22;6270821;28;20444;-75
2024/01/25 07:36:10;;;;;;;6.97;2.13;;;;;;;3.84;100.00;100059.72;6270891;28;20045;-75
2024/01/25 07:39:11;;;;;;;9.35;2.30;;;;;;;3.89;100.00;100066.47;6271986;28;20061;-75
2024/01/25 07:42:12;;;;;;;3.88;1.63;;;;;;;3.84;100.00;100066.63;6272151;28;20074;-75
2024/01/25 07:45:13;;;;;;;9.85;2.15;;;;;;;3.87;100.00;100065.69;6271739;28;20053;-75
2024/01/25 07:48:14;;;;;;;5.00;1.30;;;;;;;3.91;100.00;100059.53;6271806;28;20495;-75
2024/01/25 07:51:14;;;;;;;13.02;1.67;;;;;;;3.88;100.00;100049.31;6270697;28;20059;-75
2024/01/25 07:54:15;;;;;;;8.63;1.63;;;;;;;3.84;100.00;100053.72;6270259;28;20052;-74
2024/01/25 07:57:19;;;;;;;10.23;2.75;;;;;;;3.96;100.00;100050.75;6271710;28;20617;-75
2024/01/25 08:00:19;;;;;;;5.97;2.08;;;;;;;4.06;100.00;100055.56;6271581;28;20049;-74
2024/01/25 08:03:20;;;;;;;6.53;2.40;;;;;;;4.06;100.00;100051.28;6271542;28;20086;-74
2024/01/25 08:06:22;;;;;;;5.60;1.42;;;;;;;4.04;100.00;100045.31;6270192;28;20526;-74
2024/01/25 08:09:23;;;;;;;9.13;2.70;;;;;;;4.11;100.00;100054.53;6270065;28;20419;-74
2024/01/25 08:12:25;;;;;;;9.50;2.17;;;;;;;4.16;100.00;100049.19;6270180;28;20049;-74
2024/01/25 08:15:26;;;;;;;9.32;1.90;;;;;;;4.11;100.00;100051.13;6270049;28;20053;-74
2024/01/25 08:18:29;;;;;;;21.33;4.03;;;;;;;4.30;100.00;100046.97;6271427;28;20056;-74
2024/01/25 08:21:30;;;;;;;6.97;2.03;;;;;;;4.22;100.00;100043.81;6271030;28;20075;-75
2024/01/25 08:24:35;;;;;;;18.75;3.78;;;;;;;4.38;100.00;100051.88;6269835;28;20393;-74
2024/01/25 08:27:36;;;;;;;14.70;4.03;;;;;;;4.32;100.00;100050.34;6270990;28;20053;-74
2024/01/25 08:30:37;;;;;;;13.25;3.92;;;;;;;4.40;100.00;100044.91;6269933;28;20500;-74
2024/01/25 08:33:47;;;;;;;9.10;2.45;;;;;;;4.38;100.00;100055.31;6269639;28;20060;-75
2024/01/25 08:36:48;;;;;;;11.35;4.55;;;;;;;4.31;100.00;100064.19;6271113;28;20071;-75
2024/01/25 08:39:50;;;;;;;13.35;3.58;;;;;;;4.28;100.00;100066.84;6270869;28;20049;-75
2024/01/25 08:42:50;;;;;;;9.85;2.63;;;;;;;4.32;100.00;100055.53;6271098;28;20056;-74
2024/01/25 08:45:54;;;;;;;10.57;4.00;;;;;;;4.57;100.00;100052.06;6270704;28;20084;-74
2024/01/25 08:48:55;;;;;;;10.95;3.90;;;;;;;4.67;100.00;100056.00;6270737;28;20491;-75
2024/01/25 08:51:55;;;;;;;19.00;4.38;;;;;;;4.72;100.00;100048.94;6270813;28;20519;-75
2024/01/25 08:54:56;;;;;;;15.45;3.92;;;;;;;4.71;100.00;100056.75;6270653;28;20049;-75
2024/01/25 08:57:57;;;;;;;13.90;4.18;;;;;;;4.87;100.00;100065.63;6269591;28;20048;-75
2024/01/25 09:00:58;;;;;;;7.82;3.50;;;;;;;5.02;100.00;100059.88;6270805;28;20111;-75
2024/01/25 09:04:02;;;;;;;17.40;3.63;;;;;;;5.03;100.00;100050.38;6269473;28;20053;-76
2024/01/25 09:07:03;;;;;;;16.33;3.42;;;;;;;5.09;100.00;100063.06;6272377;28;20053;-75
2024/01/25 09:10:05;;;;;;;16.13;6.07;;;;;;;5.10;100.00;100069.06;6274257;28;20060;-75
2024/01/25 09:13:06;;;;;;;18.17;5.38;;;;;;;5.13;100.00;100061.22;6275499;28;20048;-75
2024/01/25 09:16:07;;;;;;;12.32;4.25;;;;;;;5.16;100.00;100064.50;6275542;28;20152;-75
2024/01/25 09:19:07;;;;;;;23.17;4.50;;;;;;;4.98;100.00;100066.06;6274476;28;20057;-75
2024/01/25 09:22:09;;;;;;;18.70;4.32;;;;;;;4.89;100.00;100066.41;6275504;28;20057;-75
2024/01/25 09:25:10;;;;;;;10.48;4.07;;;;;;;5.05;100.00;100069.25;6274072;28;20057;-76
2024/01/25 09:28:14;;;;;;;13.18;3.80;;;;;;;5.10;100.00;100071.66;6275587;28;20048;-75
2024/01/25 09:31:15;;;;;;;8.15;2.38;;;;;;;5.03;100.00;100073.66;6275100;28;20454;-75
2024/01/25 09:34:16;;;;;;;22.33;4.38;;;;;;;5.02;100.00;100072.81;6273792;28;20053;-75
2024/01/25 09:37:17;;;;;;;11.95;3.67;;;;;;;5.03;100.00;100074.47;6273643;28;20045;-75
2024/01/25 09:40:21;;;;;;;8.70;3.50;;;;;;;5.11;100.00;100066.44;6273690;28;20087;-75
2024/01/25 09:43:22;;;;;;;10.57;3.03;;;;;;;5.11;100.00;100069.03;6274691;28;20510;-75
2024/01/25 09:46:24;;;;;;;13.73;2.95;;;;;;;5.31;100.00;100067.41;6274619;28;20044;-75
2024/01/25 09:49:27;;;;;;;5.28;2.30;;;;;;;5.35;100.00;100064.63;6273719;28;20049;-75
2024/01/25 09:52:35;;;;;;;10.15;2.45;;;;;;;5.41;100.00;100069.56;6274588;28;20095;-75
2024/01/25 09:55:40;;;;;;;6.88;2.63;;;;;;;5.34;100.00;100054.34;6274377;28;20389;-75
2024/01/25 09:58:44;;;;;;;5.50;2.17;;;;;;;5.29;100.00;100056.28;6274334;28;20041;-75
2024/01/25 10:01:46;;;;;;;15.35;3.40;;;;;;;5.14;100.00;100043.03;6274543;28;20048;-75
2024/01/25 10:04:54;;;;;;;7.07;3.55;;;;;;;5.19;100.00;100042.88;6273049;28;20160;-74
2024/01/25 10:08:00;;;;;;;11.95;1.98;;;;;;;5.81;100.00;100046.44;6273947;28;20500;-75
2024/01/25 10:11:02;;;;;;;11.10;2.60;;;;;;;6.26;100.00;100042.84;6274220;28;20056;-75
2024/01/25 10:14:03;;;;;;;14.45;3.90;;;;;;;6.49;100.00;100046.16;6272840;28;20091;-74
2024/01/25 10:17:04;;;;;;;6.30;2.30;;;;;;;6.86;100.00;100037.56;6272689;28;20045;-75
2024/01/25 10:20:10;;;;;;;7.43;2.47;;;;;;;7.02;100.00;100038.53;6272668;28;20045;-75
2024/01/25 10:23:14;;;;;;;13.05;2.20;;;;;;;7.21;100.00;100033.31;6273869;28;20049;-76
2024/01/25 10:26:15;;;;;;;7.55;2.63;;;;;;;7.30;100.00;100029.44;6272438;28;20191;-76
2024/01/25 10:29:17;;;;;;;11.57;2.10;;;;;;;7.53;100.00;100030.91;6272668;28;20465;-76
2024/01/25 10:32:18;;;;;;;9.13;2.85;;;;;;;7.84;99.35;100019.03;6273661;28;20053;-75
2024/01/25 10:35:20;;;;;;;13.83;2.20;;;;;;;7.49;100.00;100016.41;6273880;28;20062;-75
2024/01/25 10:38:22;;;;;;;19.50;2.85;;;;;;;7.05;100.00;100014.19;6273485;28;20136;-75
2024/01/25 10:41:25;;;;;;;12.30;2.50;;;;;;;7.58;100.00;100013.38;6272243;28;20156;-75
2024/01/25 10:44:26;;;;;;;13.07;2.83;;;;;;;7.75;100.00;100011.69;6273383;28;20049;-76
2024/01/25 10:47:30;;;;;;;10.50;3.22;;;;;;;7.99;100.00;100018.25;6273252;28;20131;-75
2024/01/25 10:50:31;;;;;;;7.68;2.65;;;;;;;8.21;99.27;100027.53;6273481;28;20131;-75
2024/01/25 10:53:34;;;;;;;8.77;2.33;;;;;;;8.22;98.83;100011.88;6271961;28;20303;-75
2024/01/25 10:56:35;;;;;;;7.93;2.67;;;;;;;8.38;98.04;100005.88;6271882;28;20045;-75
2024/01/25 10:59:36;;;;;;;12.63;3.17;;;;;;;8.43;97.11;100003.91;6271768;28;20075;-75
2024/01/25 11:02:42;;;;;;;16.38;3.03;;;;;;;7.89;99.15;100011.84;6271857;28;20052;-75
2024/01/25 11:05:43;;;;;;;14.98;2.85;;;;;;;7.84;100.00;100014.69;6272655;28;20045;-75
2024/01/25 11:08:44;;;;;;;4.95;1.90;;;;;;;8.43;98.06;100007.34;6271324;28;20079;-75
2024/01/25 11:11:48;;;;;;;14.60;2.50;;;;;;;8.32;98.16;100011.38;6272720;28;20389;-75
2024/01/25 11:14:55;;;;;;;10.10;2.33;;;;;;;8.57;97.32;100010.97;6271630;28;20106;-75
2024/01/25 11:17:57;;;;;;;15.35;3.20;;;;;;;9.08;94.62;100007.31;6271075;28;20052;-75
2024/01/25 11:21:00;;;;;;;15.70;3.58;;;;;;;9.28;93.30;100011.38;6272674;28;20045;-75
2024/01/25 11:24:02;;;;;;;7.25;1.73;;;;;;;9.28;92.04;100010.53;6272206;28;20257;-75
2024/01/25 11:27:06;;;;;;;10.23;2.05;;;;;;;9.52;91.26;100000.50;6272464;28;20056;-75
2024/01/25 11:30:08;;;;;;;9.32;3.10;;;;;;;9.40;91.50;99998.59;6270944;28;20057;-75
2024/01/25 11:33:10;;;;;;;5.28;1.85;;;;;;;9.41;91.18;99989.84;6270964;28;20126;-75
2024/01/25 11:36:10;;;;;;;10.45;3.38;;;;;;;9.70;89.84;99985.59;6271997;28;20068;-75
2024/01/25 11:39:13;;;;;;;3.80;1.63;;;;;;;9.28;91.01;99985.34;6272050;28;20388;-75
2024/01/25 11:42:14;;;;;;;;;;;;;;;8.99;91.98;99978.34;6272593;28;20049;-75
2024/01/25 11:45:15;;;;;;;9.13;2.28;;;;;;;9.13;91.94;99978.41;6271875;28;19932;-75
2024/01/25 11:48:18;;;;;;;12.30;2.23;;;;;;;8.80;93.23;99981.13;6272036;28;20118;-75
2024/01/25 11:51:19;;;;;;;12.90;3.75;;;;;;;9.01;91.97;99977.31;6270573;28;20152;-75
2024/01/25 11:54:20;;;;;;;8.43;2.45;;;;;;;9.08;91.99;99972.63;6270758;28;20052;-75
2024/01/25 11:57:21;;;;;;;7.82;2.35;;;;;;;9.61;90.05;99966.09;6270305;28;20055;-75
2024/01/25 12:00:23;;;;;;;8.52;2.25;;;;;;;9.77;88.49;99973.03;6271526;28;20045;-75
2024/01/25 12:03:24;;;;;;;16.00;5.03;;;;;;;10.11;87.52;99976.22;6271633;28;20060;-75
2024/01/25 12:06:25;;;;;;;9.38;2.20;;;;;;;9.94;85.99;99974.63;6270118;28;20124;-74
2024/01/25 12:09:28;;;;;;;8.32;2.97;;;;;;;9.74;87.01;99973.19;6270038;28;20059;-75
2024/01/25 12:12:31;;;;;;;9.52;2.80;;;;;;;9.20;88.96;99961.50;6270045;28;20056;-74
2024/01/25 12:15:34;;;;;;;11.20;3.10;;;;;;;9.02;90.53;99967.78;6270260;28;20128;-75
2024/01/25 12:18:37;;;;;;;20.23;2.85;;;;;;;8.83;90.15;99968.78;6269848;28;20474;-75
2024/01/25 12:21:38;;;;;;;14.63;2.92;;;;;;;9.01;88.25;99977.31;6270189;28;20055;-75
2024/01/25 12:24:38;;;;;;;10.60;2.50;;;;;;;9.67;84.12;99963.13;6269882;28;20056;-75
2024/01/25 12:27:45;;;;;;;8.43;2.80;;;;;;;9.52;81.80;99969.25;6271143;28;20045;-75
2024/01/25 12:30:46;;;;;;;7.30;2.75;;;;;;;9.46;79.32;99960.03;6271017;28;20496;-75
2024/01/25 12:33:46;;;;;;;13.63;3.60;;;;;;;9.38;79.12;99958.78;6269839;28;20070;-75
2024/01/25 12:36:47;;;;;;;10.23;3.70;;;;;;;9.37;79.81;99962.31;6269701;28;20048;-75
2024/01/25 12:39:52;;;;;;;14.57;2.97;;;;;;;9.65;78.73;99951.13;6269564;28;20204;-75
2024/01/25 12:42:53;;;;;;;10.00;2.53;;;;;;;10.04;77.00;99957.50;6270311;28;20053;-75
2024/01/25 12:45:54;;;;;;;7.80;2.05;;;;;;;9.92;75.11;99951.25;6270788;28;20118;-75
2024/01/25 12:48:55;;;;;;;7.72;1.95;;;;;;;10.03;73.30;99959.28;6270850;28;20053;-75
2024/01/25 12:51:56;;;;;;;6.95;1.48;;;;;;;10.33;72.93;99957.53;6269596;28;20080;-75
2024/01/25 12:54:57;;;;;;;5.95;1.30;;;;;;;10.16;71.17;99956.78;6269762;28;20049;-75
2024/01/25 12:57:58;;;;;;;9.60;2.13;;;;;;;10.35;70.79;99963.50;6270372;28;20051;-71
2024/01/25 13:00:59;;;;;;;6.82;1.77;;;;;;;10.34;70.48;99967.88;6270816;28;20057;-71
2024/01/25 13:04:00;;;;;;;6.18;1.45;;;;;;;10.32;70.08;99959.31;6270809;28;20053;-71
2024/01/25 13:07:00;;;;;;;10.50;2.10;;;;;;;10.48;68.94;99954.81;6270303;28;20052;-71
2024/01/25 13:10:01;;;;;;;6.15;1.35;;;;;;;10.42;67.92;99955.22;6269407;28;20102;-71
2024/01/25 13:13:02;;;;;;;4.97;1.40;;;;;;;10.18;67.48;99967.13;6269225;28;20049;-70
2024/01/25 13:16:03;;;;;;;5.65;1.27;;;;;;;10.10;67.33;99959.75;6269175;28;20096;-70
2024/01/25 13:19:04;;;;;;;5.47;1.23;;;;;;;9.98;67.96;99961.31;6269466;28;20141;-70
2024/01/25 13:22:05;;;;;;;4.97;1.23;;;;;;;9.86;67.74;99960.31;6270639;28;20045;-70
2024/01/25 13:25:06;;;;;;;3.30;1.35;;;;;;;9.92;68.43;99964.28;6270442;28;20044;-70
2024/01/25 13:28:08;;;;;;;5.30;1.70;;;;;;;9.81;68.60;99956.28;6269174;28;20041;-70
2024/01/25 13:31:09;;;;;;;6.18;1.83;;;;;;;9.85;69.11;99965.59;6270390;28;20056;-70
2024/01/25 13:34:10;;;;;;;3.83;1.33;;;;;;;9.71;69.43;99963.81;6269286;28;20048;-70
2024/01/25 13:37:11;;;;;;;4.18;1.60;;;;;;;9.84;69.32;99966.50;6269022;28;20060;-70
2024/01/25 13:40:12;;;;;;;8.20;1.45;;;;;;;10.11;68.46;99973.63;6270099;28;20064;-70
2024/01/25 13:43:16;;;;;;;5.22;1.60;;;;;;;10.12;67.16;99978.75;6268963;28;20048;-70
2024/01/25 13:46:16;;;;;;;5.15;2.38;;;;;;;10.16;67.20;99975.03;6268898;28;20049;-70
2024/01/25 13:49:17;;;;;;;6.65;2.35;;;;;;;10.21;67.77;99970.38;6268807;28;20722;-70
2024/01/25 13:52:19;;;;;;;8.65;1.73;;;;;;;10.16;67.23;99974.19;6270486;28;20564;-70
2024/01/25 13:55:20;;;;;;;4.90;1.40;;;;;;;10.31;67.22;99972.44;6273277;28;20067;-70
2024/01/25 13:58:21;;;;;;;4.95;1.63;;;;;;;10.01;67.27;99965.53;6274172;28;20476;-70
2024/01/25 14:01:22;;;;;;;2.80;1.15;;;;;;;10.04;67.79;99971.38;6274616;28;20056;-70
2024/01/25 14:04:25;;;;;;;5.63;1.55;;;;;;;9.82;68.42;99966.63;6274372;28;20060;-70